Terminal Aerodrome Forecast
Issued by NWS Knoxville/Tri Cities, TN

Home | Current Version | Previous Version | Text Only | Print | Product List | Glossary On
Versions: 1 2 3 4 5 6 7 8 9 10 11
000
FTUS44 KMRX 131121
TAFCHA
TAF
KCHA 131121Z 1312/1412 VRB04KT P6SM SKC
     FM131500 20008KT P6SM FEW250
     FM132000 21010G16KT P6SM SCT120
     FM140100 22008KT P6SM SCT250
     FM140800 22004KT P6SM BKN250=

USA.gov is the U.S. government's official web portal to all federal, state and local government web resources and services.